ADDS METAR Data INFO
IDs: Format: Raw Decoded Include TAF

Data at: 1858 UTC 22 Sep 2017

EGBB 221850Z 15007KT 9999 SCT030 13/11 Q1019

No METAR found for EGBE

EGBJ 221750Z 19009KT 9999 FEW027 16/11 Q1019

EGVN 221850Z 19006KT 9999 SCT030 BKN040 14/09 Q1020 BLU NOSIG

EGTK 221850Z 19010KT 9999 FEW045 14/10 Q1020

No METAR found for EGWC